createdAt,value
2023-03-17T00:00:32.421Z,8.7
2023-03-17T00:30:39.194Z,8.5
2023-03-17T00:40:41.190Z,8.2
2023-03-17T01:23:44.400Z,9.3
2023-03-17T01:31:02.359Z,9.2
2023-03-17T01:41:04.996Z,9.3
2023-03-17T01:51:07.508Z,9.4
2023-03-17T02:01:09.669Z,9.4
2023-03-17T02:11:12.055Z,9.3
2023-03-17T02:21:14.320Z,9.3
2023-03-17T02:31:16.725Z,9.2
2023-03-17T02:41:18.455Z,9.1
2023-03-17T02:51:20.235Z,9
2023-03-17T03:01:22.664Z,8.8
2023-03-17T03:11:25.022Z,8.4
2023-03-17T03:21:26.784Z,8.1
2023-03-17T03:31:28.870Z,8
2023-03-17T03:41:30.989Z,8
2023-03-17T03:51:32.730Z,7.9
2023-03-17T04:01:34.528Z,8
2023-03-17T04:11:36.656Z,7.9
2023-03-17T04:21:38.836Z,7.7
2023-03-17T04:31:40.700Z,7.5
2023-03-17T04:41:43.197Z,7.2
2023-03-17T04:51:45.390Z,6.6
2023-03-17T05:01:47.466Z,6.9
2023-03-17T05:11:49.269Z,7.3
2023-03-17T05:21:51.803Z,7.8
2023-03-17T05:31:53.924Z,8.1
2023-03-17T05:41:56.230Z,8.2
2023-03-17T05:51:58.608Z,8.6
2023-03-17T06:02:00.920Z,8.6
2023-03-17T06:12:03.582Z,9
2023-03-17T06:22:05.377Z,8.9
2023-03-17T06:32:19.676Z,8.9
2023-03-17T06:42:10.431Z,8.8
2023-03-17T06:52:12.580Z,9
2023-03-17T07:02:14.913Z,9.3
2023-03-17T07:12:16.838Z,9.6
2023-03-17T07:22:19.354Z,9.9
2023-03-17T07:32:21.644Z,10.2
2023-03-17T07:42:23.361Z,10.6
2023-03-17T07:52:25.868Z,11
2023-03-17T08:02:28.479Z,11.4
2023-03-17T08:12:30.276Z,11.6
2023-03-17T08:22:32.523Z,11.8
2023-03-17T08:32:34.438Z,12.1
2023-03-17T08:42:36.440Z,12.2
2023-03-17T08:52:38.290Z,12.5
2023-03-17T09:02:40.849Z,12.6
2023-03-17T09:12:43.260Z,12.9
2023-03-17T09:22:45.021Z,13.2
2023-03-17T09:32:47.018Z,13.5
2023-03-17T09:42:48.931Z,14
2023-03-17T09:52:51.487Z,14.1
2023-03-17T10:02:52.928Z,14.3
2023-03-17T10:12:55.172Z,14.5
2023-03-17T10:22:57.728Z,14.6
2023-03-17T10:32:59.500Z,15
2023-03-17T10:43:01.896Z,15.2
2023-03-17T10:53:03.790Z,15.6
2023-03-17T11:03:06.476Z,15.6
2023-03-17T11:13:08.139Z,15.7
2023-03-17T11:23:10.677Z,15.7
2023-03-17T11:43:14.897Z,16.2
2023-03-17T11:53:17.713Z,16.4
2023-03-17T12:03:19.533Z,16.6
2023-03-17T12:13:21.292Z,16.7
2023-03-17T12:23:23.130Z,17
2023-03-17T12:33:25.288Z,17
2023-03-17T12:43:27.717Z,17.2
2023-03-17T12:53:29.899Z,17.4
2023-03-17T13:03:31.820Z,17.3
2023-03-17T13:13:33.915Z,17.3
2023-03-17T13:23:36.287Z,17.4
2023-03-17T13:33:38.426Z,17.5
2023-03-17T13:43:43.404Z,17.4
2023-03-17T13:53:43.473Z,17.4
2023-03-17T14:03:45.260Z,17.4
2023-03-17T14:13:47.592Z,17.4
2023-03-17T14:23:49.681Z,17.5
2023-03-17T14:33:51.824Z,17.5
2023-03-17T14:43:53.688Z,17.5
2023-03-17T14:53:55.673Z,17.5
2023-03-17T15:03:58.286Z,17.4
2023-03-17T15:14:00.896Z,17.3
2023-03-17T15:24:02.904Z,17.4
2023-03-17T15:34:04.936Z,17.2
2023-03-17T15:44:07.438Z,17
2023-03-17T15:54:10.089Z,16.8
2023-03-17T16:04:12.204Z,16.6
2023-03-17T16:14:14.120Z,16.4
2023-03-17T16:24:16.021Z,16.3
2023-03-17T16:34:18.107Z,16.2
2023-03-17T16:44:20.648Z,16.2
2023-03-17T16:54:22.574Z,16.1
2023-03-17T17:04:24.585Z,15.8
2023-03-17T17:14:26.386Z,15.5
2023-03-17T17:24:28.873Z,15.3
2023-03-17T17:34:30.638Z,15.1
2023-03-17T17:44:33.317Z,15
2023-03-17T17:54:35.227Z,14.8
2023-03-17T18:04:37.613Z,14.8
2023-03-17T18:14:39.331Z,14.5
2023-03-17T18:24:41.350Z,14.4
2023-03-17T18:34:43.752Z,14.3
2023-03-17T18:44:45.599Z,14.1
2023-03-17T18:54:47.992Z,14.1
2023-03-17T19:04:50.371Z,14
2023-03-17T19:14:52.860Z,13.9
2023-03-17T19:24:55.448Z,13.9
2023-03-17T19:34:57.095Z,13.7
2023-03-17T19:44:59.083Z,13.6
2023-03-17T19:55:00.785Z,13.6
2023-03-17T20:15:04.648Z,13.6
2023-03-17T20:25:07.319Z,13.5
2023-03-17T20:35:09.806Z,13.3
2023-03-17T20:55:14.845Z,13.5
2023-03-17T21:05:16.932Z,13.6
2023-03-17T21:15:19.413Z,13.6
2023-03-17T21:25:21.152Z,13.5
2023-03-17T21:35:23.001Z,13.3
2023-03-17T21:45:25.323Z,13.2
2023-03-17T21:55:27.219Z,13.1
2023-03-17T22:05:29.027Z,13
2023-03-17T22:15:31.627Z,12.9
2023-03-17T22:25:33.350Z,12.8
2023-03-17T22:35:35.481Z,12.8
2023-03-17T22:45:37.970Z,12.8
2023-03-17T22:55:39.964Z,12.9
2023-03-17T23:05:41.841Z,12.9
2023-03-17T23:15:44.132Z,12.8
2023-03-17T23:25:46.487Z,12.9
2023-03-17T23:35:48.372Z,12.9
2023-03-17T23:45:50.182Z,12.8
2023-03-17T23:55:52.004Z,12.7
